Saint-Honore-De-Temiscouata, Canada
Current Conditions -  °F | °C
As of 11:53 AM on Tuesday 27 Jan 2015 (Local Time) from KFVE Reporting Station
Overcast Overcast  
Wind Chill: -14°   Ceiling: 7000
Heat Index:   Visibility: 10mi
Dew Point: -15°   Wind: 14mph
Humidity: 41%   Direction: 40°NE
Pressure: 30.04"   Gusts: 24mph
Location:  47.72°N, 69.13°W
Report Text: KFVE 271653Z AUTO 04012G21KT 10SM BKN070 OVC090 M16/M26 A3004 RMK AO2 SLP198 T11561261
Loading
Personal Weather Stations






























Interactive Weather Map New forecast layout! Learn more

10-Day Weather Forecast

Advertisements
Track Severe Weather on mobile